createdAt,value
2022-12-07T00:01:26.273Z,6.82
2022-12-07T00:03:53.710Z,5.50
2022-12-07T00:06:20.768Z,5.78
2022-12-07T00:08:47.312Z,6.25
2022-12-07T00:11:21.081Z,6.13
2022-12-07T00:13:47.976Z,6.60
2022-12-07T00:16:15.642Z,6.72
2022-12-07T00:18:42.257Z,6.53
2022-12-07T00:21:13.335Z,5.78
2022-12-07T00:23:40.326Z,5.95
2022-12-07T00:26:07.705Z,6.60
2022-12-07T00:28:34.878Z,6.80
2022-12-07T00:31:04.999Z,7.32
2022-12-07T00:33:31.558Z,7.65
2022-12-07T00:35:58.992Z,7.03
2022-12-07T00:38:25.653Z,6.80
2022-12-07T00:41:15.181Z,6.47
2022-12-07T00:43:42.265Z,6.85
2022-12-07T00:46:08.711Z,6.93
2022-12-07T00:48:35.108Z,6.55
2022-12-07T00:51:01.749Z,6.82
2022-12-07T00:53:28.599Z,7.32
2022-12-07T00:55:56.507Z,7.47
2022-12-07T00:58:23.682Z,7.28
2022-12-07T01:08:11.134Z,6.47
2022-12-07T01:10:37.512Z,6.57
2022-12-07T01:13:03.845Z,6.45
2022-12-07T01:15:30.213Z,7.07
2022-12-07T01:17:56.652Z,6.68
2022-12-07T01:20:23.033Z,6.43
2022-12-07T01:22:49.805Z,6.68
2022-12-07T01:25:16.168Z,6.50
2022-12-07T01:27:42.537Z,6.70
2022-12-07T01:30:09.246Z,6.82
2022-12-07T01:32:35.556Z,6.78
2022-12-07T01:35:01.889Z,6.53
2022-12-07T01:37:28.321Z,6.68
2022-12-07T01:39:54.681Z,6.80
2022-12-07T01:42:21.603Z,6.65
2022-12-07T01:45:06.900Z,6.65
2022-12-07T01:47:33.286Z,6.78
2022-12-07T01:49:59.950Z,7.43
2022-12-07T01:52:26.464Z,7.85
2022-12-07T01:54:55.400Z,6.57
2022-12-07T01:57:22.195Z,7.50
2022-12-07T01:59:49.571Z,7.03
2022-12-07T02:02:20.595Z,6.72
2022-12-07T02:04:47.436Z,6.53
2022-12-07T02:07:14.026Z,6.45
2022-12-07T02:09:40.520Z,7.20
2022-12-07T02:12:07.047Z,7.15
2022-12-07T02:14:33.396Z,6.85
2022-12-07T02:17:05.585Z,6.93
2022-12-07T02:19:50.801Z,6.53
2022-12-07T02:22:17.186Z,6.97
2022-12-07T02:24:50.497Z,6.40
2022-12-07T02:27:34.911Z,5.83
2022-12-07T02:32:34.035Z,5.30
2022-12-07T02:35:05.501Z,5.53
2022-12-07T02:37:44.250Z,5.82
2022-12-07T02:40:13.706Z,6.18
2022-12-07T02:42:43.745Z,6.47
2022-12-07T02:45:11.593Z,5.80
2022-12-07T02:47:38.330Z,5.93
2022-12-07T02:50:06.054Z,6.22
2022-12-07T02:52:32.451Z,5.63
2022-12-07T02:54:59.175Z,5.45
2022-12-07T02:57:28.306Z,6.18
2022-12-07T03:00:02.869Z,5.40
2022-12-07T03:02:39.143Z,6.03
2022-12-07T03:05:24.276Z,6.28
2022-12-07T03:07:54.266Z,5.47
2022-12-07T03:10:28.280Z,6.53
2022-12-07T03:12:54.628Z,6.50
2022-12-07T03:15:27.016Z,6.65
2022-12-07T03:17:56.822Z,6.60
2022-12-07T03:20:24.531Z,6.30
2022-12-07T03:22:51.835Z,6.43
2022-12-07T03:25:18.452Z,6.22
2022-12-07T03:27:44.802Z,6.10
2022-12-07T03:30:13.596Z,7.10
2022-12-07T03:32:45.561Z,5.75
2022-12-07T03:35:11.884Z,6.43
2022-12-07T03:37:41.782Z,6.72
2022-12-07T03:40:12.289Z,7.32
2022-12-07T03:42:39.001Z,6.60
2022-12-07T03:45:06.413Z,6.57
2022-12-07T03:47:39.803Z,6.45
2022-12-07T03:50:06.307Z,6.88
2022-12-07T03:52:43.164Z,6.63
2022-12-07T03:55:11.935Z,6.55
2022-12-07T03:57:39.516Z,6.85
2022-12-07T04:00:07.750Z,6.57
2022-12-07T04:02:38.884Z,6.80
2022-12-07T04:05:07.215Z,8.07
2022-12-07T04:07:33.670Z,6.68
2022-12-07T04:10:00.432Z,7.00
2022-12-07T04:12:27.218Z,6.78
2022-12-07T04:14:53.539Z,7.20
2022-12-07T04:17:19.960Z,7.75
2022-12-07T04:19:46.392Z,7.85
2022-12-07T04:22:12.713Z,7.38
2022-12-07T04:24:39.635Z,8.07
2022-12-07T04:27:05.979Z,8.32
2022-12-07T04:29:32.470Z,8.13
2022-12-07T04:31:58.902Z,7.13
2022-12-07T04:34:25.338Z,7.50
2022-12-07T04:36:51.668Z,8.25
2022-12-07T04:39:20.020Z,8.85
2022-12-07T04:41:46.409Z,8.23
2022-12-07T04:44:15.174Z,7.55
2022-12-07T04:46:42.400Z,8.40
2022-12-07T04:49:09.021Z,7.18
2022-12-07T04:51:35.384Z,7.68
2022-12-07T04:54:01.813Z,8.70
2022-12-07T04:56:28.168Z,8.80
2022-12-07T04:58:55.168Z,7.97
2022-12-07T05:01:22.106Z,8.07
2022-12-07T05:03:48.456Z,8.77
2022-12-07T05:06:15.383Z,8.82
2022-12-07T05:08:42.330Z,9.63
2022-12-07T05:11:08.772Z,9.10
2022-12-07T05:13:35.503Z,7.80
2022-12-07T05:16:02.004Z,8.02
2022-12-07T05:18:28.370Z,8.10
2022-12-07T05:20:54.719Z,8.13
2022-12-07T05:23:21.132Z,7.60
2022-12-07T05:25:47.538Z,8.45
2022-12-07T05:28:13.878Z,9.38
2022-12-07T05:30:40.222Z,9.82
2022-12-07T05:33:06.504Z,9.93
2022-12-07T05:35:32.823Z,8.95
2022-12-07T05:37:59.301Z,8.60
2022-12-07T05:40:25.615Z,9.48
2022-12-07T05:42:52.007Z,8.95
2022-12-07T05:45:18.363Z,9.52
2022-12-07T05:47:44.692Z,10.07
2022-12-07T05:50:11.088Z,9.50
2022-12-07T05:52:37.382Z,10.73
2022-12-07T05:55:03.808Z,12.27
2022-12-07T05:57:30.167Z,11.80
2022-12-07T05:59:56.467Z,9.77
2022-12-07T06:02:22.989Z,10.63
2022-12-07T06:04:49.494Z,9.65
2022-12-07T06:07:20.124Z,9.55
2022-12-07T06:09:46.654Z,9.25
2022-12-07T06:12:34.739Z,9.82
2022-12-07T06:15:01.084Z,10.60
2022-12-07T06:17:27.568Z,10.20
2022-12-07T06:19:53.920Z,10.85
2022-12-07T06:22:20.363Z,10.13
2022-12-07T06:24:46.777Z,10.02
2022-12-07T06:27:13.240Z,10.52
2022-12-07T06:29:39.587Z,9.75
2022-12-07T06:32:06.104Z,11.25
2022-12-07T06:34:32.498Z,9.75
2022-12-07T06:36:58.899Z,11.38
2022-12-07T06:39:26.326Z,10.52
2022-12-07T06:41:53.031Z,10.73
2022-12-07T06:44:19.851Z,11.05
2022-12-07T06:46:46.373Z,11.13
2022-12-07T06:49:13.459Z,10.82
2022-12-07T06:51:42.118Z,10.85
2022-12-07T06:54:12.180Z,10.07
2022-12-07T06:56:38.579Z,11.25
2022-12-07T06:59:06.442Z,11.38
2022-12-07T07:01:33.161Z,11.55
2022-12-07T07:03:59.599Z,12.15
2022-12-07T07:06:26.099Z,11.55
2022-12-07T07:08:52.845Z,12.13
2022-12-07T07:11:19.638Z,11.57
2022-12-07T07:13:46.416Z,11.60
2022-12-07T07:16:12.872Z,11.02
2022-12-07T07:18:39.235Z,11.75
2022-12-07T07:21:05.682Z,10.75
2022-12-07T07:23:32.056Z,10.95
2022-12-07T07:25:58.618Z,10.82
2022-12-07T07:28:25.151Z,10.65
2022-12-07T07:30:51.558Z,11.98
2022-12-07T07:33:17.962Z,11.65
2022-12-07T07:35:44.385Z,11.65
2022-12-07T07:38:10.890Z,10.68
2022-12-07T07:40:37.934Z,10.18
2022-12-07T07:43:04.470Z,11.75
2022-12-07T07:45:30.841Z,12.45
2022-12-07T07:47:57.187Z,10.73
2022-12-07T07:50:23.585Z,11.77
2022-12-07T07:52:50.255Z,11.82
2022-12-07T07:55:17.203Z,11.65
2022-12-07T07:57:43.559Z,11.45
2022-12-07T08:00:11.802Z,11.27
2022-12-07T08:02:41.881Z,11.35
2022-12-07T08:05:08.793Z,11.23
2022-12-07T08:07:40.433Z,12.05
2022-12-07T08:10:07.215Z,12.15
2022-12-07T08:12:36.433Z,12.00
2022-12-07T08:15:02.794Z,11.25
2022-12-07T08:17:29.136Z,13.07
2022-12-07T08:19:55.520Z,12.25
2022-12-07T08:22:21.831Z,11.75
2022-12-07T08:24:48.315Z,10.85
2022-12-07T08:27:14.704Z,11.77
2022-12-07T08:29:41.001Z,11.70
2022-12-07T08:32:09.755Z,11.75
2022-12-07T08:34:36.917Z,11.38
2022-12-07T08:37:03.346Z,11.75
2022-12-07T08:39:32.073Z,13.73
2022-12-07T08:41:58.812Z,14.65
2022-12-07T08:44:25.237Z,12.15
2022-12-07T08:47:03.242Z,11.60
2022-12-07T08:49:34.080Z,10.48
2022-12-07T08:52:00.668Z,11.38
2022-12-07T08:54:27.231Z,11.02
2022-12-07T08:56:59.107Z,10.55
2022-12-07T08:59:26.696Z,11.90
2022-12-07T09:01:53.636Z,11.55
2022-12-07T09:04:21.443Z,11.10
2022-12-07T09:06:48.062Z,11.63
2022-12-07T09:09:14.841Z,11.13
2022-12-07T09:11:41.302Z,11.63
2022-12-07T09:14:07.811Z,11.50
2022-12-07T09:16:34.207Z,11.35
2022-12-07T09:19:00.587Z,10.82
2022-12-07T09:21:26.910Z,12.23
2022-12-07T09:23:53.348Z,11.95
2022-12-07T09:26:19.755Z,11.05
2022-12-07T09:28:46.220Z,10.75
2022-12-07T09:31:23.183Z,11.95
2022-12-07T09:34:08.589Z,10.55
2022-12-07T09:39:01.470Z,10.30
2022-12-07T09:41:28.989Z,11.50
2022-12-07T09:43:58.921Z,10.82
2022-12-07T09:46:25.434Z,11.20
2022-12-07T09:48:52.087Z,10.13
2022-12-07T09:51:24.672Z,11.57
2022-12-07T09:53:56.033Z,11.27
2022-12-07T09:56:22.988Z,11.43
2022-12-07T09:58:50.083Z,10.77
2022-12-07T10:01:18.012Z,16.70
2022-12-07T10:03:55.073Z,12.18
2022-12-07T10:06:21.638Z,10.65
2022-12-07T10:08:48.309Z,11.35
2022-12-07T10:11:15.930Z,10.40
2022-12-07T10:13:50.245Z,11.20
2022-12-07T10:16:26.006Z,12.73
2022-12-07T10:18:52.906Z,12.73
2022-12-07T10:21:24.985Z,10.27
2022-12-07T10:24:05.231Z,11.30
2022-12-07T10:26:35.788Z,9.52
2022-12-07T10:29:05.263Z,10.55
2022-12-07T10:31:31.765Z,11.90
2022-12-07T10:33:59.607Z,10.80
2022-12-07T10:36:36.677Z,10.00
2022-12-07T10:39:14.505Z,11.10
2022-12-07T10:42:00.942Z,9.75
2022-12-07T10:44:28.417Z,10.15
2022-12-07T10:47:16.035Z,9.68
2022-12-07T10:49:48.865Z,8.32
2022-12-07T10:52:41.197Z,9.20
2022-12-07T10:55:26.519Z,10.38
2022-12-07T10:57:52.837Z,8.77
2022-12-07T11:00:19.146Z,8.70
2022-12-07T11:03:04.332Z,10.65
2022-12-07T11:05:39.471Z,10.65
2022-12-07T11:08:19.243Z,8.70
2022-12-07T11:10:51.174Z,13.82
2022-12-07T11:13:28.088Z,9.20
2022-12-07T11:16:01.120Z,7.95
2022-12-07T11:18:31.176Z,8.98
2022-12-07T11:21:20.919Z,8.10
2022-12-07T11:23:50.533Z,8.13
2022-12-07T11:26:40.675Z,10.35
2022-12-07T11:29:28.420Z,10.77
2022-12-07T11:32:15.842Z,13.13
2022-12-07T11:34:42.174Z,11.50
2022-12-07T11:37:14.679Z,12.25
2022-12-07T11:39:45.380Z,8.88
2022-12-07T11:42:15.800Z,8.63
2022-12-07T11:44:53.776Z,11.60
2022-12-07T11:47:28.559Z,8.07
2022-12-07T11:49:56.888Z,8.98
2022-12-07T11:52:28.442Z,8.90
2022-12-07T11:54:54.918Z,9.82
2022-12-07T11:57:31.608Z,10.20
2022-12-07T12:00:00.527Z,6.28
2022-12-07T12:02:47.689Z,8.82
2022-12-07T12:05:19.760Z,5.93
2022-12-07T12:10:33.517Z,4.68
2022-12-07T12:16:31.847Z,4.40
2022-12-07T12:18:58.266Z,4.15
2022-12-07T12:21:28.595Z,4.72
2022-12-07T12:24:00.334Z,4.18
2022-12-07T12:26:28.961Z,4.38
2022-12-07T12:28:57.836Z,4.95
2022-12-07T12:31:24.411Z,4.70
2022-12-07T12:33:55.508Z,4.40
2022-12-07T12:36:21.926Z,4.47
2022-12-07T12:38:51.414Z,3.88
2022-12-07T12:41:36.802Z,4.40
2022-12-07T12:44:03.971Z,4.55
2022-12-07T12:46:30.414Z,4.50
2022-12-07T12:49:14.972Z,4.05
2022-12-07T12:51:42.943Z,4.10
2022-12-07T12:54:32.643Z,4.00
2022-12-07T12:57:17.892Z,3.63
2022-12-07T12:59:53.427Z,3.92
2022-12-07T13:02:23.217Z,3.72
2022-12-07T13:04:51.980Z,3.60
2022-12-07T13:07:38.671Z,4.15
2022-12-07T13:10:05.551Z,4.22
2022-12-07T13:12:32.528Z,4.10
2022-12-07T13:15:00.105Z,3.88
2022-12-07T13:17:32.528Z,3.67
2022-12-07T13:20:04.365Z,3.65
2022-12-07T13:22:31.275Z,3.92
2022-12-07T13:25:06.804Z,4.38
2022-12-07T13:27:34.033Z,3.47
2022-12-07T13:30:00.489Z,3.92
2022-12-07T13:32:28.200Z,3.30
2022-12-07T13:34:54.641Z,3.70
2022-12-07T13:37:38.572Z,3.42
2022-12-07T13:40:18.415Z,3.15
2022-12-07T13:42:45.017Z,3.50
2022-12-07T13:45:47.566Z,4.40
2022-12-07T13:48:21.667Z,5.32
2022-12-07T13:53:17.144Z,4.20
2022-12-07T13:55:53.844Z,4.10
2022-12-07T13:58:24.782Z,4.60
2022-12-07T14:00:51.870Z,5.68
2022-12-07T14:03:18.757Z,4.85
2022-12-07T14:05:46.188Z,5.40
2022-12-07T14:08:18.121Z,5.28
2022-12-07T14:10:51.017Z,4.82
2022-12-07T14:13:29.228Z,5.10
2022-12-07T14:15:59.564Z,5.85
2022-12-07T14:18:30.821Z,6.25
2022-12-07T14:21:16.578Z,4.40
2022-12-07T14:23:43.073Z,5.35
2022-12-07T14:26:16.794Z,5.75
2022-12-07T14:28:44.200Z,6.15
2022-12-07T14:31:16.440Z,6.43
2022-12-07T14:33:46.996Z,6.15
2022-12-07T14:36:14.212Z,6.07
2022-12-07T14:38:40.629Z,6.63
2022-12-07T14:41:29.841Z,6.75
2022-12-07T14:44:21.933Z,5.40
2022-12-07T14:46:42.769Z,7.80
2022-12-07T14:54:42.153Z,6.93
2022-12-07T14:57:09.917Z,5.40
2022-12-07T14:59:39.178Z,5.03
2022-12-07T15:02:10.335Z,6.35
2022-12-07T15:04:36.694Z,6.35
2022-12-07T15:07:04.277Z,5.43
2022-12-07T15:09:30.691Z,5.22
2022-12-07T15:11:57.072Z,4.65
2022-12-07T15:14:23.481Z,4.25
2022-12-07T15:17:08.348Z,3.55
2022-12-07T15:19:35.711Z,4.60
2022-12-07T15:22:02.044Z,5.28
2022-12-07T15:24:28.625Z,6.10
2022-12-07T15:26:55.268Z,5.10
2022-12-07T15:29:23.520Z,6.05
2022-12-07T15:31:56.959Z,6.93
2022-12-07T15:34:25.132Z,6.65
2022-12-07T15:36:51.752Z,8.13
2022-12-07T15:39:18.157Z,6.43
2022-12-07T15:41:44.522Z,6.93
2022-12-07T15:44:31.544Z,7.25
2022-12-07T15:46:58.030Z,7.03
2022-12-07T15:49:24.455Z,7.25
2022-12-07T15:51:50.817Z,7.50
2022-12-07T15:54:20.547Z,8.55
2022-12-07T15:56:47.066Z,9.65
2022-12-07T15:59:13.648Z,8.15
2022-12-07T16:01:40.073Z,9.80
2022-12-07T16:04:06.515Z,8.07
2022-12-07T16:06:32.928Z,6.68
2022-12-07T16:08:59.295Z,7.30
2022-12-07T16:11:25.727Z,6.25
2022-12-07T16:13:52.184Z,6.57
2022-12-07T16:16:19.565Z,7.07
2022-12-07T16:18:47.162Z,7.40
2022-12-07T16:21:14.231Z,6.50
2022-12-07T16:23:40.656Z,7.20
2022-12-07T16:26:12.908Z,6.97
2022-12-07T16:28:39.241Z,6.70
2022-12-07T16:31:07.862Z,7.72
2022-12-07T16:33:38.354Z,9.73
2022-12-07T16:36:05.321Z,8.45
2022-12-07T16:38:32.009Z,8.45
2022-12-07T16:40:58.372Z,7.60
2022-12-07T16:43:24.781Z,6.40
2022-12-07T16:45:51.434Z,6.88
2022-12-07T16:48:18.066Z,6.95
2022-12-07T16:50:50.909Z,7.65
2022-12-07T16:53:17.950Z,8.77
2022-12-07T16:55:45.345Z,9.00
2022-12-07T16:58:15.201Z,8.68
2022-12-07T17:00:42.560Z,8.43
2022-12-07T17:03:09.300Z,8.23
2022-12-07T17:05:42.423Z,7.15
2022-12-07T17:08:09.715Z,7.93
2022-12-07T17:10:37.680Z,7.85
2022-12-07T17:13:24.732Z,8.52
2022-12-07T17:16:01.889Z,8.75
2022-12-07T17:18:29.381Z,9.20
2022-12-07T17:20:59.889Z,8.93
2022-12-07T17:23:29.158Z,8.30
2022-12-07T17:25:55.499Z,9.50
2022-12-07T17:28:22.089Z,8.48
2022-12-07T17:30:48.771Z,9.13
2022-12-07T17:33:15.411Z,9.00
2022-12-07T17:35:41.788Z,10.13
2022-12-07T17:38:08.119Z,9.35
2022-12-07T17:40:34.470Z,8.82
2022-12-07T17:43:00.879Z,8.85
2022-12-07T17:45:27.429Z,9.13
2022-12-07T17:47:54.266Z,14.85
2022-12-07T17:50:40.679Z,14.15
2022-12-07T17:53:11.129Z,11.98
2022-12-07T17:56:03.643Z,12.00
2022-12-07T17:58:24.491Z,13.18
2022-12-07T18:00:51.070Z,12.38
2022-12-07T18:03:17.643Z,11.52
2022-12-07T18:05:45.139Z,11.48
2022-12-07T18:08:11.607Z,11.50
2022-12-07T18:10:38.105Z,11.35
2022-12-07T18:13:23.185Z,9.68
2022-12-07T18:15:55.759Z,11.23
2022-12-07T18:18:22.094Z,10.95
2022-12-07T18:20:48.417Z,10.15
2022-12-07T18:23:14.869Z,9.80
2022-12-07T18:25:43.214Z,10.02
2022-12-07T18:28:09.565Z,9.82
2022-12-07T18:31:13.152Z,9.65
2022-12-07T18:33:22.415Z,9.85
2022-12-07T18:35:48.830Z,9.32
2022-12-07T18:38:15.543Z,9.43
2022-12-07T18:40:42.618Z,10.55
2022-12-07T18:43:09.434Z,9.45
2022-12-07T18:45:38.756Z,10.15
2022-12-07T18:48:05.737Z,10.38
2022-12-07T18:50:32.188Z,10.82
2022-12-07T18:52:59.116Z,9.98
2022-12-07T18:55:29.076Z,10.52
2022-12-07T18:57:56.064Z,10.07
2022-12-07T19:00:23.400Z,9.75
2022-12-07T19:02:50.325Z,10.32
2022-12-07T19:05:16.970Z,10.70
2022-12-07T19:07:44.055Z,10.25
2022-12-07T19:10:12.029Z,9.88
2022-12-07T19:12:38.505Z,9.32
2022-12-07T19:15:05.429Z,11.02
2022-12-07T19:17:32.235Z,9.52
2022-12-07T19:19:58.649Z,10.65
2022-12-07T19:22:25.439Z,10.45
2022-12-07T19:24:53.958Z,10.73
2022-12-07T19:27:20.897Z,10.95
2022-12-07T19:29:47.862Z,11.93
2022-12-07T19:32:14.670Z,11.18
2022-12-07T19:34:42.263Z,12.70
2022-12-07T19:37:09.485Z,13.52
2022-12-07T19:39:35.884Z,12.15
2022-12-07T19:42:02.252Z,10.93
2022-12-07T19:44:30.274Z,12.10
2022-12-07T19:47:04.290Z,12.25
2022-12-07T19:49:33.166Z,12.40
2022-12-07T19:52:01.433Z,11.63
2022-12-07T19:54:29.595Z,11.25
2022-12-07T19:56:56.399Z,14.00
2022-12-07T19:59:24.290Z,13.27
2022-12-07T20:01:50.800Z,12.13
2022-12-07T20:04:21.926Z,12.43
2022-12-07T20:06:49.688Z,12.57
2022-12-07T20:09:16.060Z,11.68
2022-12-07T20:12:01.079Z,11.77
2022-12-07T20:14:27.404Z,13.65
2022-12-07T20:16:53.886Z,15.93
2022-12-07T20:19:20.484Z,12.73
2022-12-07T20:21:46.966Z,12.48
2022-12-07T20:24:17.232Z,11.68
2022-12-07T20:26:44.033Z,11.77
2022-12-07T20:29:17.918Z,12.40
2022-12-07T20:31:45.354Z,13.23
2022-12-07T20:34:12.034Z,13.90
2022-12-07T20:36:38.373Z,14.23
2022-12-07T20:39:05.616Z,14.20
2022-12-07T20:41:50.873Z,13.65
2022-12-07T20:44:17.379Z,12.88
2022-12-07T20:46:44.269Z,13.20
2022-12-07T20:49:12.004Z,12.65
2022-12-07T20:51:38.313Z,13.00
2022-12-07T20:54:04.767Z,12.75
2022-12-07T20:56:31.793Z,12.55
2022-12-07T20:58:59.060Z,12.20
2022-12-07T21:01:25.683Z,12.77
2022-12-07T21:03:55.952Z,12.52
2022-12-07T21:06:22.378Z,13.43
2022-12-07T21:08:50.071Z,13.52
2022-12-07T21:11:20.551Z,13.18
2022-12-07T21:13:47.239Z,13.70
2022-12-07T21:16:15.060Z,13.50
2022-12-07T21:18:41.872Z,12.93
2022-12-07T21:21:09.406Z,14.15
2022-12-07T21:23:36.015Z,14.25
2022-12-07T21:26:09.164Z,12.93
2022-12-07T21:28:35.468Z,13.63
2022-12-07T21:31:16.689Z,14.10
2022-12-07T21:33:46.512Z,16.70
2022-12-07T21:36:13.934Z,15.13
2022-12-07T21:38:40.516Z,14.40
2022-12-07T21:41:33.562Z,14.73
2022-12-07T21:44:00.266Z,14.57
2022-12-07T21:46:33.389Z,15.75
2022-12-07T21:49:01.431Z,15.27
2022-12-07T21:51:28.782Z,14.88
2022-12-07T21:53:55.826Z,13.90
2022-12-07T21:56:26.463Z,14.27
2022-12-07T21:58:53.676Z,14.93
2022-12-07T22:01:20.037Z,14.18
2022-12-07T22:03:46.484Z,15.68
2022-12-07T22:06:16.789Z,15.50
2022-12-07T22:08:43.623Z,15.45
2022-12-07T22:11:10.989Z,14.82
2022-12-07T22:13:56.525Z,16.20
2022-12-07T22:16:22.996Z,14.98
2022-12-07T22:18:49.388Z,15.63
2022-12-07T22:21:15.724Z,14.52
2022-12-07T22:23:42.056Z,15.38
2022-12-07T22:26:08.974Z,13.95
2022-12-07T22:28:37.349Z,15.65
2022-12-07T22:31:04.327Z,15.40
2022-12-07T22:33:30.710Z,13.88
2022-12-07T22:35:57.091Z,15.82
2022-12-07T22:38:23.766Z,17.67
2022-12-07T22:40:50.184Z,15.60
2022-12-07T22:43:16.623Z,15.65
2022-12-07T22:45:43.001Z,16.95
2022-12-07T22:48:09.479Z,15.43
2022-12-07T22:50:36.934Z,15.30
2022-12-07T22:53:03.253Z,16.58
2022-12-07T22:55:29.640Z,17.70
2022-12-07T22:57:55.943Z,18.05
2022-12-07T23:00:23.031Z,17.40
2022-12-07T23:02:49.408Z,17.52
2022-12-07T23:05:15.770Z,16.48
2022-12-07T23:07:42.213Z,18.30
2022-12-07T23:10:08.824Z,15.23
2022-12-07T23:12:54.494Z,16.98
2022-12-07T23:15:20.838Z,17.10
2022-12-07T23:17:47.178Z,16.45
2022-12-07T23:20:13.531Z,15.57
2022-12-07T23:22:39.963Z,16.30
2022-12-07T23:25:06.776Z,15.82
2022-12-07T23:27:33.818Z,15.68
2022-12-07T23:30:00.163Z,15.95
2022-12-07T23:32:26.524Z,15.48
2022-12-07T23:34:52.869Z,15.15
2022-12-07T23:37:19.197Z,14.38
2022-12-07T23:39:45.576Z,15.65
2022-12-07T23:42:11.894Z,15.02
2022-12-07T23:44:38.228Z,15.85
2022-12-07T23:47:04.670Z,14.05
2022-12-07T23:49:31.115Z,13.52
2022-12-07T23:51:57.448Z,13.95
2022-12-07T23:54:23.783Z,14.45
2022-12-07T23:56:53.293Z,14.55
2022-12-07T23:59:19.825Z,14.05
